createdAt,value
2022-11-29T00:00:45.184Z,6.92
2022-11-29T00:02:24.944Z,6.91
2022-11-29T00:04:04.747Z,6.92
2022-11-29T00:05:44.499Z,6.91
2022-11-29T00:07:24.260Z,6.9
2022-11-29T00:09:04.021Z,6.9
2022-11-29T00:10:43.792Z,6.89
2022-11-29T00:12:23.555Z,6.89
2022-11-29T00:14:03.339Z,6.88
2022-11-29T00:15:43.090Z,6.88
2022-11-29T00:17:22.851Z,6.9
2022-11-29T00:19:02.619Z,6.89
2022-11-29T00:20:42.401Z,6.88
2022-11-29T00:22:22.164Z,6.86
2022-11-29T00:25:41.692Z,6.85
2022-11-29T00:27:21.458Z,6.87
2022-11-29T00:29:01.220Z,6.87
2022-11-29T00:30:41.000Z,6.87
2022-11-29T00:32:20.765Z,6.84
2022-11-29T00:34:00.553Z,6.84
2022-11-29T00:35:40.309Z,6.83
2022-11-29T00:37:20.066Z,6.82
2022-11-29T00:38:59.837Z,6.83
2022-11-29T00:40:39.594Z,6.85
2022-11-29T00:42:19.372Z,6.83
2022-11-29T00:43:59.144Z,6.82
2022-11-29T00:45:38.896Z,6.82
2022-11-29T00:47:18.680Z,6.82
2022-11-29T00:48:58.431Z,6.83
2022-11-29T00:50:38.211Z,6.83
2022-11-29T00:52:17.978Z,6.82
2022-11-29T00:53:57.749Z,6.82
2022-11-29T00:55:37.523Z,6.82
2022-11-29T00:57:17.271Z,6.8
2022-11-29T00:58:57.040Z,6.79
2022-11-29T01:00:36.823Z,6.79
2022-11-29T01:02:16.568Z,6.79
2022-11-29T01:03:56.355Z,6.8
2022-11-29T01:05:36.115Z,6.78
2022-11-29T01:07:15.874Z,6.79
2022-11-29T01:08:55.639Z,6.8
2022-11-29T01:10:35.436Z,6.77
2022-11-29T01:12:15.190Z,6.78
2022-11-29T01:13:54.946Z,6.79
2022-11-29T01:15:34.718Z,6.76
2022-11-29T01:17:14.483Z,6.78
2022-11-29T01:18:54.256Z,6.76
2022-11-29T01:20:34.018Z,6.75
2022-11-29T01:22:13.776Z,6.76
2022-11-29T01:23:53.554Z,6.74
2022-11-29T01:25:33.324Z,6.74
2022-11-29T01:27:13.089Z,6.76
2022-11-29T01:28:52.862Z,6.74
2022-11-29T01:30:32.619Z,6.76
2022-11-29T01:32:12.398Z,6.73
2022-11-29T01:33:52.146Z,6.75
2022-11-29T01:35:31.921Z,6.75
2022-11-29T01:37:11.692Z,6.75
2022-11-29T01:38:51.443Z,6.74
2022-11-29T01:40:31.229Z,6.75
2022-11-29T01:42:10.989Z,6.72
2022-11-29T01:43:50.760Z,6.74
2022-11-29T01:45:30.531Z,6.73
2022-11-29T01:47:10.286Z,6.73
2022-11-29T01:48:50.059Z,6.72
2022-11-29T01:50:29.831Z,6.7
2022-11-29T01:52:09.589Z,6.7
2022-11-29T01:53:49.354Z,6.72
2022-11-29T01:55:29.122Z,6.69
2022-11-29T01:57:08.902Z,6.7
2022-11-29T01:58:48.670Z,6.72
2022-11-29T02:00:28.423Z,6.7
2022-11-29T02:02:08.250Z,6.7
2022-11-29T02:05:27.747Z,6.71
2022-11-29T02:07:07.497Z,6.69
2022-11-29T02:08:47.261Z,6.68
2022-11-29T02:10:27.044Z,6.69
2022-11-29T02:12:06.802Z,6.7
2022-11-29T02:13:46.565Z,6.7
2022-11-29T02:15:26.328Z,6.69
2022-11-29T02:18:45.857Z,6.67
2022-11-29T02:20:25.631Z,6.67
2022-11-29T02:22:05.396Z,6.66
2022-11-29T02:23:45.169Z,6.68
2022-11-29T02:25:24.945Z,6.69
2022-11-29T02:27:04.696Z,6.68
2022-11-29T02:28:44.481Z,6.67
2022-11-29T02:30:24.232Z,6.67
2022-11-29T02:32:04.013Z,6.68
2022-11-29T02:33:43.786Z,6.65
2022-11-29T02:35:23.541Z,6.66
2022-11-29T02:37:03.304Z,6.66
2022-11-29T02:38:43.079Z,6.67
2022-11-29T02:40:22.832Z,6.65
2022-11-29T02:42:02.607Z,6.64
2022-11-29T02:45:22.141Z,6.67
2022-11-29T02:48:41.682Z,6.65
2022-11-29T02:50:21.440Z,6.64
2022-11-29T02:52:01.211Z,6.65
2022-11-29T02:53:40.990Z,6.66
2022-11-29T02:55:20.740Z,6.65
2022-11-29T02:57:00.536Z,6.63
2022-11-29T02:58:40.278Z,6.64
2022-11-29T03:00:20.061Z,6.65
2022-11-29T03:01:59.801Z,6.63
2022-11-29T03:03:39.582Z,6.65
2022-11-29T03:05:19.346Z,6.63
2022-11-29T03:06:59.128Z,6.64
2022-11-29T03:08:38.910Z,6.64
2022-11-29T03:10:18.650Z,6.62
2022-11-29T03:11:58.424Z,6.62
2022-11-29T03:13:38.201Z,6.64
2022-11-29T03:15:17.947Z,6.65
2022-11-29T03:16:57.721Z,6.62
2022-11-29T03:18:37.498Z,6.64
2022-11-29T03:20:17.260Z,6.64
2022-11-29T03:21:57.032Z,6.61
2022-11-29T03:23:36.789Z,6.63
2022-11-29T03:25:16.552Z,6.63
2022-11-29T03:26:56.337Z,6.62
2022-11-29T03:28:36.088Z,6.63
2022-11-29T03:30:15.867Z,6.63
2022-11-29T03:31:55.632Z,6.61
2022-11-29T03:33:35.406Z,6.62
2022-11-29T03:35:15.156Z,6.63
2022-11-29T03:36:54.924Z,6.6
2022-11-29T03:38:34.685Z,6.6
2022-11-29T03:40:14.474Z,6.59
2022-11-29T03:41:54.217Z,6.62
2022-11-29T03:43:33.997Z,6.59
2022-11-29T03:45:13.772Z,6.61
2022-11-29T03:46:53.537Z,6.6
2022-11-29T03:48:33.295Z,6.59
2022-11-29T03:50:13.055Z,6.59
2022-11-29T03:51:52.840Z,6.61
2022-11-29T03:53:32.597Z,6.61
2022-11-29T03:55:12.372Z,6.61
2022-11-29T03:56:52.128Z,6.59
2022-11-29T03:58:31.892Z,6.59
2022-11-29T04:00:11.668Z,6.61
2022-11-29T04:01:51.423Z,6.59
2022-11-29T04:03:31.204Z,6.59
2022-11-29T04:05:10.970Z,6.61
2022-11-29T04:06:50.729Z,6.6
2022-11-29T04:08:30.507Z,6.58
2022-11-29T04:10:10.264Z,6.6
2022-11-29T04:11:50.031Z,6.58
2022-11-29T04:13:29.818Z,6.6
2022-11-29T04:15:09.581Z,6.6
2022-11-29T04:16:49.350Z,6.57
2022-11-29T04:18:29.119Z,6.57
2022-11-29T04:20:08.865Z,6.57
2022-11-29T04:21:48.633Z,6.57
2022-11-29T04:23:28.434Z,6.59
2022-11-29T04:25:08.173Z,6.59
2022-11-29T04:26:47.945Z,6.59
2022-11-29T04:28:27.706Z,6.57
2022-11-29T04:30:07.489Z,6.58
2022-11-29T04:31:47.255Z,6.59
2022-11-29T04:33:27.020Z,6.57
2022-11-29T04:35:06.794Z,6.58
2022-11-29T04:36:46.554Z,6.58
2022-11-29T04:38:26.311Z,6.56
2022-11-29T04:40:06.091Z,6.58
2022-11-29T04:41:45.855Z,6.57
2022-11-29T04:43:25.615Z,6.56
2022-11-29T04:45:05.382Z,6.57
2022-11-29T04:46:45.146Z,6.58
2022-11-29T04:48:24.930Z,6.56
2022-11-29T04:51:44.449Z,6.58
2022-11-29T04:53:24.222Z,6.57
2022-11-29T04:55:03.974Z,6.57
2022-11-29T04:56:43.751Z,6.57
2022-11-29T04:58:23.519Z,6.55
2022-11-29T05:00:03.295Z,6.56
2022-11-29T05:01:43.068Z,6.55
2022-11-29T05:03:22.829Z,6.56
2022-11-29T05:05:02.581Z,6.54
2022-11-29T05:06:42.358Z,6.54
2022-11-29T05:08:22.117Z,6.57
2022-11-29T05:10:01.882Z,6.54
2022-11-29T05:11:41.643Z,6.54
2022-11-29T05:13:21.434Z,6.55
2022-11-29T05:15:01.182Z,6.54
2022-11-29T05:16:40.963Z,6.56
2022-11-29T05:18:20.733Z,6.55
2022-11-29T05:20:00.495Z,6.56
2022-11-29T05:21:40.267Z,6.56
2022-11-29T05:23:20.022Z,6.55
2022-11-29T05:24:59.802Z,6.53
2022-11-29T05:26:39.561Z,6.55
2022-11-29T05:28:19.334Z,6.56
2022-11-29T05:29:59.113Z,6.53
2022-11-29T05:31:38.873Z,6.56
2022-11-29T05:33:18.620Z,6.53
2022-11-29T05:34:58.398Z,6.54
2022-11-29T05:36:38.145Z,6.54
2022-11-29T05:38:17.913Z,6.55
2022-11-29T05:39:57.725Z,6.55
2022-11-29T05:41:37.463Z,6.55
2022-11-29T05:43:17.212Z,6.54
2022-11-29T05:44:56.978Z,6.53
2022-11-29T05:46:36.763Z,6.53
2022-11-29T05:48:16.529Z,6.54
2022-11-29T05:49:56.291Z,6.53
2022-11-29T05:51:36.052Z,6.55
2022-11-29T05:53:15.813Z,6.53
2022-11-29T05:54:55.577Z,6.54
2022-11-29T05:56:35.363Z,6.53
2022-11-29T05:58:15.126Z,6.54
2022-11-29T05:59:54.876Z,6.54
2022-11-29T06:01:34.655Z,6.53
2022-11-29T06:03:14.427Z,6.54
2022-11-29T06:04:54.192Z,6.52
2022-11-29T06:06:33.956Z,6.52
2022-11-29T06:08:13.733Z,6.52
2022-11-29T06:09:53.486Z,6.53
2022-11-29T06:11:33.272Z,6.51
2022-11-29T06:13:13.029Z,6.53
2022-11-29T06:14:52.779Z,6.51
2022-11-29T06:16:32.563Z,6.52
2022-11-29T06:18:12.322Z,6.52
2022-11-29T06:19:52.106Z,6.53
2022-11-29T06:21:31.876Z,6.52
2022-11-29T06:23:11.630Z,6.52
2022-11-29T06:24:51.425Z,6.52
2022-11-29T06:26:31.149Z,6.52
2022-11-29T06:28:10.907Z,6.54
2022-11-29T06:29:50.687Z,6.52
2022-11-29T06:31:30.462Z,6.54
2022-11-29T06:33:10.220Z,6.56
2022-11-29T06:34:49.989Z,6.61
2022-11-29T06:36:29.763Z,6.63
2022-11-29T06:38:09.525Z,6.65
2022-11-29T06:39:49.285Z,6.66
2022-11-29T06:41:29.092Z,6.7
2022-11-29T06:43:08.822Z,6.72
2022-11-29T06:44:48.599Z,6.72
2022-11-29T06:46:28.358Z,6.76
2022-11-29T06:48:08.130Z,6.78
2022-11-29T06:49:47.932Z,6.81
2022-11-29T06:51:27.668Z,6.84
2022-11-29T06:53:07.448Z,6.86
2022-11-29T06:54:47.189Z,6.89
2022-11-29T06:56:26.983Z,6.86
2022-11-29T06:58:06.742Z,6.88
2022-11-29T06:59:46.498Z,6.92
2022-11-29T07:01:26.278Z,6.93
2022-11-29T07:03:06.046Z,6.94
2022-11-29T07:04:45.839Z,6.95
2022-11-29T07:06:25.581Z,6.96
2022-11-29T07:08:05.338Z,6.97
2022-11-29T07:09:45.115Z,6.98
2022-11-29T07:11:24.897Z,7
2022-11-29T07:13:04.650Z,6.98
2022-11-29T07:14:44.416Z,7.03
2022-11-29T07:16:24.191Z,7.03
2022-11-29T07:18:03.972Z,7.02
2022-11-29T07:19:43.725Z,7.05
2022-11-29T07:21:23.552Z,7.04
2022-11-29T07:23:03.270Z,7.06
2022-11-29T07:24:43.043Z,7.09
2022-11-29T07:26:22.803Z,7.11
2022-11-29T07:28:02.585Z,7.11
2022-11-29T07:29:42.345Z,7.11
2022-11-29T07:31:22.138Z,7.13
2022-11-29T07:33:01.892Z,7.14
2022-11-29T07:34:41.664Z,7.15
2022-11-29T07:36:21.432Z,7.18
2022-11-29T07:38:01.211Z,7.18
2022-11-29T07:39:40.977Z,7.16
2022-11-29T07:41:20.751Z,7.19
2022-11-29T07:43:00.518Z,7.18
2022-11-29T07:44:40.280Z,7.23
2022-11-29T07:46:20.054Z,7.24
2022-11-29T07:47:59.832Z,7.23
2022-11-29T07:49:39.631Z,7.24
2022-11-29T07:51:19.368Z,7.23
2022-11-29T07:52:59.123Z,7.25
2022-11-29T07:54:38.897Z,7.26
2022-11-29T07:56:18.676Z,7.29
2022-11-29T07:57:58.447Z,7.28
2022-11-29T07:59:38.206Z,7.3
2022-11-29T08:01:17.992Z,7.31
2022-11-29T08:02:57.766Z,7.28
2022-11-29T08:04:37.518Z,7.3
2022-11-29T08:06:17.301Z,7.33
2022-11-29T08:07:57.065Z,7.38
2022-11-29T08:09:36.831Z,7.32
2022-11-29T08:11:16.607Z,7.33
2022-11-29T08:12:56.382Z,7.35
2022-11-29T08:14:36.167Z,7.39
2022-11-29T08:16:15.938Z,7.4
2022-11-29T08:17:55.682Z,7.39
2022-11-29T08:19:35.457Z,7.4
2022-11-29T08:21:15.231Z,7.41
2022-11-29T08:22:55.001Z,7.44
2022-11-29T08:24:34.764Z,7.42
2022-11-29T08:26:14.544Z,7.45
2022-11-29T08:27:54.329Z,7.44
2022-11-29T08:29:34.102Z,7.47
2022-11-29T08:31:13.836Z,7.48
2022-11-29T08:32:53.602Z,7.51
2022-11-29T08:34:33.396Z,7.52
2022-11-29T08:36:13.149Z,7.5
2022-11-29T08:37:52.928Z,7.53
2022-11-29T08:39:32.718Z,7.52
2022-11-29T08:41:12.476Z,7.55
2022-11-29T08:42:52.237Z,7.58
2022-11-29T08:44:31.999Z,7.57
2022-11-29T08:46:11.781Z,7.59
2022-11-29T08:47:51.537Z,7.59
2022-11-29T08:49:31.338Z,7.59
2022-11-29T08:51:11.091Z,7.61
2022-11-29T08:52:50.870Z,7.63
2022-11-29T08:54:30.623Z,7.67
2022-11-29T08:56:10.425Z,7.64
2022-11-29T08:57:50.168Z,7.66
2022-11-29T08:59:29.962Z,7.7
2022-11-29T09:01:09.702Z,7.69
2022-11-29T09:02:49.590Z,7.74
2022-11-29T09:04:29.238Z,7.73
2022-11-29T09:06:09.015Z,7.75
2022-11-29T09:07:48.790Z,7.77
2022-11-29T09:09:28.575Z,7.77
2022-11-29T09:11:08.326Z,7.75
2022-11-29T09:12:48.145Z,7.79
2022-11-29T09:14:27.857Z,7.78
2022-11-29T09:16:07.636Z,7.78
2022-11-29T09:17:47.402Z,7.77
2022-11-29T09:19:27.207Z,7.75
2022-11-29T09:21:06.919Z,7.73
2022-11-29T09:22:46.706Z,7.75
2022-11-29T09:24:26.475Z,7.71
2022-11-29T09:26:06.237Z,7.73
2022-11-29T09:29:25.781Z,7.71
2022-11-29T09:31:05.564Z,7.74
2022-11-29T09:32:45.334Z,7.78
2022-11-29T09:34:25.090Z,7.8
2022-11-29T09:36:04.873Z,7.84
2022-11-29T09:37:44.632Z,7.86
2022-11-29T09:39:24.404Z,7.91
2022-11-29T09:41:04.168Z,7.96
2022-11-29T09:42:43.942Z,7.96
2022-11-29T09:44:23.716Z,7.99
2022-11-29T09:46:03.477Z,8
2022-11-29T09:47:43.264Z,8.04
2022-11-29T09:49:23.018Z,8.06
2022-11-29T09:51:02.803Z,8.1
2022-11-29T09:52:42.576Z,8.1
2022-11-29T09:54:22.335Z,8.16
2022-11-29T09:56:02.101Z,8.2
2022-11-29T09:57:41.870Z,8.18
2022-11-29T09:59:21.644Z,8.25
2022-11-29T10:01:01.424Z,8.22
2022-11-29T10:02:41.181Z,8.25
2022-11-29T10:04:21.019Z,8.26
2022-11-29T10:06:00.729Z,8.31
2022-11-29T10:07:40.513Z,8.33
2022-11-29T10:09:20.272Z,8.38
2022-11-29T10:11:00.023Z,8.38
2022-11-29T10:12:39.799Z,8.39
2022-11-29T10:14:19.579Z,8.43
2022-11-29T10:15:59.449Z,8.43
2022-11-29T10:17:39.109Z,8.49
2022-11-29T10:19:18.891Z,8.49
2022-11-29T10:20:58.656Z,8.51
2022-11-29T10:22:38.445Z,8.54
2022-11-29T10:24:18.200Z,8.53
2022-11-29T10:25:57.983Z,8.56
2022-11-29T10:27:37.729Z,8.56
2022-11-29T10:29:17.512Z,8.59
2022-11-29T10:32:37.079Z,8.64
2022-11-29T10:34:16.825Z,8.63
2022-11-29T10:35:56.589Z,8.68
2022-11-29T10:37:36.369Z,8.71
2022-11-29T10:39:16.158Z,8.72
2022-11-29T10:40:55.899Z,8.75
2022-11-29T10:42:35.656Z,8.79
2022-11-29T10:44:15.451Z,8.78
2022-11-29T10:45:55.199Z,8.79
2022-11-29T10:47:34.980Z,8.78
2022-11-29T10:49:14.777Z,8.8
2022-11-29T10:50:54.514Z,8.79
2022-11-29T10:52:34.286Z,8.77
2022-11-29T10:54:14.062Z,8.77
2022-11-29T10:55:53.834Z,8.75
2022-11-29T10:57:33.607Z,8.74
2022-11-29T10:59:13.372Z,8.72
2022-11-29T11:00:53.161Z,8.72
2022-11-29T11:02:32.917Z,8.72
2022-11-29T11:04:12.732Z,8.72
2022-11-29T11:05:52.441Z,8.7
2022-11-29T11:07:32.210Z,8.68
2022-11-29T11:09:11.987Z,8.68
2022-11-29T11:10:51.754Z,8.68
2022-11-29T11:12:31.528Z,8.68
2022-11-29T11:14:11.321Z,8.68
2022-11-29T11:15:51.077Z,8.68
2022-11-29T11:17:30.849Z,8.7
2022-11-29T11:19:10.629Z,8.68
2022-11-29T11:20:50.385Z,8.7
2022-11-29T11:22:30.159Z,8.7
2022-11-29T11:24:09.921Z,8.68
2022-11-29T11:25:49.692Z,8.68
2022-11-29T11:27:29.515Z,8.67
2022-11-29T11:29:09.227Z,8.68
2022-11-29T11:30:49.021Z,8.66
2022-11-29T11:32:28.769Z,8.66
2022-11-29T11:34:08.596Z,8.68
2022-11-29T11:35:48.322Z,8.66
2022-11-29T11:39:07.850Z,8.68
2022-11-29T11:40:47.622Z,8.67
2022-11-29T11:42:27.398Z,8.68
2022-11-29T11:44:07.159Z,8.7
2022-11-29T11:47:26.714Z,8.72
2022-11-29T11:50:46.402Z,8.72
2022-11-29T11:55:45.581Z,8.75
2022-11-29T12:00:44.875Z,8.75
2022-11-29T12:07:24.026Z,8.78
2022-11-29T12:09:03.731Z,8.75
2022-11-29T12:10:43.533Z,8.74
2022-11-29T12:12:23.374Z,8.75
2022-11-29T12:14:03.027Z,8.74
2022-11-29T12:15:42.794Z,8.77
2022-11-29T12:19:02.388Z,8.78
2022-11-29T12:20:42.170Z,8.76
2022-11-29T12:22:22.058Z,8.75
2022-11-29T12:24:01.782Z,8.76
2022-11-29T12:25:41.618Z,8.77
2022-11-29T12:27:21.188Z,8.76
2022-11-29T12:29:00.952Z,8.78
2022-11-29T12:30:40.778Z,8.79
2022-11-29T12:32:20.511Z,8.79
2022-11-29T12:34:00.287Z,8.76
2022-11-29T12:35:40.037Z,8.76
2022-11-29T12:37:19.810Z,8.77
2022-11-29T12:38:59.598Z,8.8
2022-11-29T12:40:39.348Z,8.77
2022-11-29T12:42:19.114Z,8.8
2022-11-29T12:43:58.907Z,8.77
2022-11-29T12:45:38.734Z,8.8
2022-11-29T12:47:18.429Z,8.79
2022-11-29T12:48:58.259Z,8.81
2022-11-29T12:50:38.139Z,8.82
2022-11-29T12:52:17.904Z,8.79
2022-11-29T12:53:57.518Z,8.81
2022-11-29T12:55:37.298Z,8.83
2022-11-29T12:57:17.045Z,8.82
2022-11-29T12:58:56.883Z,8.82
2022-11-29T13:00:36.627Z,8.85
2022-11-29T13:02:16.384Z,8.85
2022-11-29T13:03:56.127Z,8.84
2022-11-29T13:05:35.883Z,8.83
2022-11-29T13:07:15.674Z,8.83
2022-11-29T13:08:55.444Z,8.83
2022-11-29T13:10:35.217Z,8.83
2022-11-29T13:12:15.019Z,8.84
2022-11-29T13:13:54.876Z,8.85
2022-11-29T13:15:34.674Z,8.83
2022-11-29T13:17:14.291Z,8.83
2022-11-29T13:18:54.127Z,8.84
2022-11-29T13:20:33.978Z,8.84
2022-11-29T13:22:13.621Z,8.85
2022-11-29T13:23:53.461Z,8.83
2022-11-29T13:25:33.304Z,8.82
2022-11-29T13:27:12.926Z,8.85
2022-11-29T13:28:52.718Z,8.85
2022-11-29T13:30:32.469Z,8.85
2022-11-29T13:32:12.224Z,8.85
2022-11-29T13:33:52.009Z,8.84
2022-11-29T13:35:31.759Z,8.83
2022-11-29T13:37:11.624Z,8.87
2022-11-29T13:38:51.325Z,8.83
2022-11-29T13:40:31.074Z,8.84
2022-11-29T13:42:10.845Z,8.84
2022-11-29T13:43:50.615Z,8.84
2022-11-29T13:45:30.450Z,8.85
2022-11-29T13:47:10.165Z,8.84
2022-11-29T13:48:49.914Z,8.85
2022-11-29T13:50:29.693Z,8.85
2022-11-29T13:52:09.471Z,8.85
2022-11-29T13:53:49.236Z,8.83
2022-11-29T13:55:28.999Z,8.83
2022-11-29T13:57:08.774Z,8.87
2022-11-29T13:58:48.631Z,8.87
2022-11-29T14:00:28.295Z,8.89
2022-11-29T14:05:27.620Z,8.84
2022-11-29T14:07:07.389Z,8.87
2022-11-29T14:08:47.177Z,8.85
2022-11-29T14:10:26.920Z,8.84
2022-11-29T14:12:06.698Z,8.85
2022-11-29T14:15:26.216Z,8.84
2022-11-29T14:17:05.997Z,8.87
2022-11-29T14:18:45.778Z,8.85
2022-11-29T14:20:25.522Z,8.83
2022-11-29T14:22:05.284Z,8.87
2022-11-29T14:23:45.075Z,8.85
2022-11-29T14:25:24.837Z,8.85
2022-11-29T14:27:04.591Z,8.89
2022-11-29T14:28:44.364Z,8.85
2022-11-29T14:30:24.131Z,8.84
2022-11-29T14:32:03.921Z,8.85
2022-11-29T14:33:43.674Z,8.89
2022-11-29T14:35:23.428Z,8.85
2022-11-29T14:37:03.242Z,8.83
2022-11-29T14:38:43.028Z,8.85
2022-11-29T14:40:22.750Z,8.87
2022-11-29T14:42:02.499Z,8.84
2022-11-29T14:43:42.263Z,8.85
2022-11-29T14:47:01.902Z,8.82
2022-11-29T14:48:41.576Z,8.82
2022-11-29T14:50:21.348Z,8.84
2022-11-29T14:52:01.182Z,8.84
2022-11-29T14:53:40.877Z,8.84
2022-11-29T14:55:20.656Z,8.84
2022-11-29T14:57:00.506Z,8.82
2022-11-29T14:58:40.189Z,8.85
2022-11-29T15:00:19.962Z,8.84
2022-11-29T15:01:59.711Z,8.83
2022-11-29T15:03:39.492Z,8.84
2022-11-29T15:05:19.283Z,8.82
2022-11-29T15:06:59.021Z,8.85
2022-11-29T15:08:38.805Z,8.82
2022-11-29T15:10:18.550Z,8.8
2022-11-29T15:13:38.090Z,8.75
2022-11-29T15:16:57.623Z,8.68
2022-11-29T15:18:37.389Z,8.68
2022-11-29T15:20:17.166Z,8.64
2022-11-29T15:21:56.972Z,8.64
2022-11-29T15:23:36.684Z,8.62
2022-11-29T15:25:16.473Z,8.59
2022-11-29T15:26:56.236Z,8.59
2022-11-29T15:28:36.006Z,8.56
2022-11-29T15:30:15.757Z,8.52
2022-11-29T15:31:55.528Z,8.52
2022-11-29T15:33:35.286Z,8.49
2022-11-29T15:36:54.838Z,8.46
2022-11-29T15:38:34.597Z,8.45
2022-11-29T15:40:14.394Z,8.45
2022-11-29T15:41:54.122Z,8.43
2022-11-29T15:43:33.991Z,8.41
2022-11-29T15:45:13.672Z,8.38
2022-11-29T15:46:53.426Z,8.35
2022-11-29T15:48:33.204Z,8.38
2022-11-29T15:50:12.971Z,8.35
2022-11-29T15:51:52.736Z,8.33
2022-11-29T15:53:32.525Z,8.32
2022-11-29T15:55:12.273Z,8.31
2022-11-29T15:56:52.041Z,8.3
2022-11-29T15:58:31.832Z,8.31
2022-11-29T16:00:11.578Z,8.29
2022-11-29T16:01:51.327Z,8.28
2022-11-29T16:03:31.095Z,8.28
2022-11-29T16:06:50.638Z,8.24
2022-11-29T16:08:30.456Z,8.22
2022-11-29T16:10:10.188Z,8.22
2022-11-29T16:11:49.941Z,8.22
2022-11-29T16:13:29.709Z,8.21
2022-11-29T16:15:09.477Z,8.18
2022-11-29T16:16:49.259Z,8.2
2022-11-29T16:18:29.048Z,8.2
2022-11-29T16:20:08.781Z,8.18
2022-11-29T16:21:48.542Z,8.17
2022-11-29T16:23:28.313Z,8.17
2022-11-29T16:25:08.074Z,8.17
2022-11-29T16:26:47.844Z,8.16
2022-11-29T16:28:27.621Z,8.14
2022-11-29T16:30:07.394Z,8.14
2022-11-29T16:31:47.164Z,8.12
2022-11-29T16:33:26.937Z,8.14
2022-11-29T16:35:06.680Z,8.12
2022-11-29T16:36:46.506Z,8.1
2022-11-29T16:38:26.219Z,8.1
2022-11-29T16:40:05.990Z,8.1
2022-11-29T16:41:45.744Z,8.1
2022-11-29T16:43:25.525Z,8.1
2022-11-29T16:45:05.278Z,8.08
2022-11-29T16:46:45.117Z,8.08
2022-11-29T16:48:24.818Z,8.08
2022-11-29T16:50:04.585Z,8.06
2022-11-29T16:51:44.421Z,8.06
2022-11-29T16:53:24.118Z,8.05
2022-11-29T16:56:43.654Z,8.04
2022-11-29T16:58:23.428Z,8.05
2022-11-29T17:00:03.264Z,8.03
2022-11-29T17:01:43.020Z,8.03
2022-11-29T17:03:22.712Z,8.05
2022-11-29T17:05:02.497Z,8.03
2022-11-29T17:06:42.266Z,8.02
2022-11-29T17:08:22.031Z,8.03
2022-11-29T17:10:01.810Z,8.02
2022-11-29T17:11:41.552Z,8.02
2022-11-29T17:13:21.356Z,8.01
2022-11-29T17:15:01.094Z,8
2022-11-29T17:16:40.907Z,8.02
2022-11-29T17:18:20.626Z,8.01
2022-11-29T17:20:00.401Z,8
2022-11-29T17:21:40.213Z,8
2022-11-29T17:23:19.943Z,8
2022-11-29T17:24:59.693Z,7.98
2022-11-29T17:26:39.461Z,7.98
2022-11-29T17:28:19.280Z,7.98
2022-11-29T17:29:58.991Z,7.99
2022-11-29T17:31:38.821Z,7.98
2022-11-29T17:33:18.525Z,7.98
2022-11-29T17:34:58.321Z,7.98
2022-11-29T17:38:17.847Z,7.97
2022-11-29T17:39:57.609Z,7.95
2022-11-29T17:43:17.147Z,7.96
2022-11-29T17:46:36.687Z,7.95
2022-11-29T17:48:16.527Z,7.95
2022-11-29T17:49:56.248Z,7.94
2022-11-29T17:51:35.961Z,7.94
2022-11-29T17:56:35.272Z,7.94
2022-11-29T17:58:15.035Z,7.94
2022-11-29T17:59:54.813Z,7.95
2022-11-29T18:01:34.570Z,7.94
2022-11-29T18:03:14.333Z,7.92
2022-11-29T18:06:33.918Z,7.92
2022-11-29T18:08:13.654Z,7.92
2022-11-29T18:09:53.507Z,7.94
2022-11-29T18:11:33.201Z,7.92
2022-11-29T18:14:52.741Z,7.94
2022-11-29T18:16:32.486Z,7.91
2022-11-29T18:19:52.022Z,7.92
2022-11-29T18:21:31.796Z,7.92
2022-11-29T18:23:11.618Z,7.92
2022-11-29T18:28:10.862Z,7.91
2022-11-29T18:29:50.619Z,7.9
2022-11-29T18:31:30.407Z,7.89
2022-11-29T18:34:49.918Z,7.9
2022-11-29T18:36:29.750Z,7.91
2022-11-29T18:38:09.454Z,7.91
2022-11-29T18:39:49.325Z,7.9
2022-11-29T18:41:28.980Z,7.89
2022-11-29T18:43:08.748Z,7.9
2022-11-29T18:44:48.520Z,7.9
2022-11-29T18:49:47.820Z,7.89
2022-11-29T18:54:47.131Z,7.88
2022-11-29T18:56:26.898Z,7.87
2022-11-29T18:58:06.657Z,7.87
2022-11-29T18:59:46.433Z,7.87
2022-11-29T19:01:26.210Z,7.87
2022-11-29T19:03:05.961Z,7.88
2022-11-29T19:06:25.532Z,7.88
2022-11-29T19:08:05.260Z,7.89
2022-11-29T19:11:24.833Z,7.88
2022-11-29T19:13:04.673Z,7.89
2022-11-29T19:14:44.342Z,7.88
2022-11-29T19:16:24.093Z,7.88
2022-11-29T19:18:03.973Z,7.89
2022-11-29T19:19:43.638Z,7.87
2022-11-29T19:21:23.407Z,7.87
2022-11-29T19:23:03.165Z,7.88
2022-11-29T19:26:22.709Z,7.85
2022-11-29T19:28:02.485Z,7.86
2022-11-29T19:29:42.258Z,7.89
2022-11-29T19:31:22.014Z,7.88
2022-11-29T19:34:41.545Z,7.86
2022-11-29T19:36:21.306Z,7.88
2022-11-29T19:38:01.088Z,7.87
2022-11-29T19:39:40.845Z,7.87
2022-11-29T19:41:20.606Z,7.87
2022-11-29T19:43:00.379Z,7.87
2022-11-29T19:44:40.144Z,7.86
2022-11-29T19:46:19.924Z,7.85
2022-11-29T19:47:59.673Z,7.87
2022-11-29T19:49:39.457Z,7.87
2022-11-29T19:51:19.220Z,7.87
2022-11-29T19:52:58.975Z,7.85
2022-11-29T19:54:38.747Z,7.86
2022-11-29T19:56:18.513Z,7.86
2022-11-29T19:57:58.296Z,7.86
2022-11-29T19:59:38.055Z,7.84
2022-11-29T20:01:17.921Z,7.85
2022-11-29T20:02:57.590Z,7.85
2022-11-29T20:04:37.355Z,7.85
2022-11-29T20:06:17.116Z,7.83
2022-11-29T20:07:56.984Z,7.85
2022-11-29T20:09:36.732Z,7.85
2022-11-29T20:11:16.436Z,7.85
2022-11-29T20:12:56.181Z,7.84
2022-11-29T20:14:35.977Z,7.84
2022-11-29T20:16:15.800Z,7.82
2022-11-29T20:17:55.557Z,7.85
2022-11-29T20:19:35.286Z,7.84
2022-11-29T20:21:15.027Z,7.83
2022-11-29T20:22:54.812Z,7.84
2022-11-29T20:26:14.457Z,7.84
2022-11-29T20:27:54.103Z,7.82
2022-11-29T20:29:33.878Z,7.82
2022-11-29T20:31:13.617Z,7.82
2022-11-29T20:32:53.412Z,7.81
2022-11-29T20:34:33.234Z,7.83
2022-11-29T20:36:12.925Z,7.82
2022-11-29T20:37:52.701Z,7.81
2022-11-29T20:39:32.459Z,7.82
2022-11-29T20:41:12.230Z,7.83
2022-11-29T20:42:51.999Z,7.82
2022-11-29T20:44:31.768Z,7.8
2022-11-29T20:46:11.532Z,7.81
2022-11-29T20:47:51.312Z,7.82
2022-11-29T20:49:31.092Z,7.81
2022-11-29T20:51:10.974Z,7.8
2022-11-29T20:52:50.618Z,7.82
2022-11-29T20:54:30.423Z,7.81
2022-11-29T20:56:10.213Z,7.82
2022-11-29T20:57:49.967Z,7.79
2022-11-29T20:59:29.714Z,7.79
2022-11-29T21:01:09.455Z,7.81
2022-11-29T21:02:49.233Z,7.81
2022-11-29T21:04:29.040Z,7.81
2022-11-29T21:06:08.737Z,7.79
2022-11-29T21:07:48.500Z,7.79
2022-11-29T21:09:28.370Z,7.8
2022-11-29T21:11:08.033Z,7.8
2022-11-29T21:12:47.820Z,7.8
2022-11-29T21:14:27.571Z,7.78
2022-11-29T21:16:07.333Z,7.8
2022-11-29T21:17:47.103Z,7.77
2022-11-29T21:19:26.924Z,7.79
2022-11-29T21:21:06.664Z,7.77
2022-11-29T21:22:46.546Z,7.79
2022-11-29T21:26:05.937Z,7.76
2022-11-29T21:27:45.709Z,7.79
2022-11-29T21:29:25.553Z,7.76
2022-11-29T21:31:05.261Z,7.76
2022-11-29T21:32:45.024Z,7.78
2022-11-29T21:34:24.884Z,7.78
2022-11-29T21:36:04.559Z,7.77
2022-11-29T21:37:44.402Z,7.78
2022-11-29T21:39:24.087Z,7.77
2022-11-29T21:41:03.921Z,7.75
2022-11-29T21:42:43.687Z,7.76
2022-11-29T21:46:03.211Z,7.77
2022-11-29T21:47:43.023Z,7.77
2022-11-29T21:49:22.799Z,7.75
2022-11-29T21:51:02.506Z,7.76
2022-11-29T21:52:42.300Z,7.74
2022-11-29T21:54:22.029Z,7.76
2022-11-29T21:56:01.810Z,7.76
2022-11-29T21:57:41.520Z,7.74
2022-11-29T21:59:21.284Z,7.74
2022-11-29T22:01:01.056Z,7.74
2022-11-29T22:02:40.878Z,7.76
2022-11-29T22:04:20.602Z,7.73
2022-11-29T22:06:00.365Z,7.75
2022-11-29T22:07:40.138Z,7.76
2022-11-29T22:09:19.919Z,7.75
2022-11-29T22:10:59.673Z,7.73
2022-11-29T22:12:39.424Z,7.73
2022-11-29T22:14:19.210Z,7.73
2022-11-29T22:15:58.985Z,7.74
2022-11-29T22:17:38.792Z,7.74
2022-11-29T22:19:18.619Z,7.75
2022-11-29T22:20:58.304Z,7.72
2022-11-29T22:22:38.020Z,7.75
2022-11-29T22:24:17.797Z,7.75
2022-11-29T22:25:57.569Z,7.74
2022-11-29T22:27:37.330Z,7.72
2022-11-29T22:29:17.137Z,7.74
2022-11-29T22:30:56.925Z,7.74
2022-11-29T22:32:36.639Z,7.72
2022-11-29T22:35:56.218Z,7.72
2022-11-29T22:37:35.955Z,7.72
2022-11-29T22:39:15.697Z,7.73
2022-11-29T22:40:55.475Z,7.71
2022-11-29T22:42:35.235Z,7.73
2022-11-29T22:44:15.059Z,7.73
2022-11-29T22:45:54.780Z,7.72
2022-11-29T22:47:34.540Z,7.71
2022-11-29T22:49:14.316Z,7.69
2022-11-29T22:50:54.069Z,7.72
2022-11-29T22:52:33.843Z,7.7
2022-11-29T22:54:13.603Z,7.69
2022-11-29T22:55:53.373Z,7.69
2022-11-29T22:57:33.167Z,7.69
2022-11-29T22:59:12.947Z,7.69
2022-11-29T23:00:52.684Z,7.7
2022-11-29T23:02:32.449Z,7.69
2022-11-29T23:04:12.234Z,7.7
2022-11-29T23:05:51.984Z,7.69
2022-11-29T23:07:31.756Z,7.69
2022-11-29T23:09:11.517Z,7.67
2022-11-29T23:10:51.291Z,7.67
2022-11-29T23:12:31.060Z,7.67
2022-11-29T23:14:10.811Z,7.69
2022-11-29T23:15:50.586Z,7.67
2022-11-29T23:17:30.350Z,7.66
2022-11-29T23:19:10.127Z,7.68
2022-11-29T23:20:49.896Z,7.67
2022-11-29T23:22:29.662Z,7.69
2022-11-29T23:24:09.534Z,7.66
2022-11-29T23:25:49.183Z,7.65
2022-11-29T23:27:28.964Z,7.67
2022-11-29T23:29:08.728Z,7.65
2022-11-29T23:30:48.496Z,7.65
2022-11-29T23:32:28.249Z,7.65
2022-11-29T23:34:08.034Z,7.65
2022-11-29T23:35:47.793Z,7.65
2022-11-29T23:37:27.552Z,7.63